createdAt,value
2023-11-29T00:00:51.353Z,41.91
2023-11-29T00:03:18.701Z,41.85
2023-11-29T00:05:46.617Z,41.86
2023-11-29T00:08:14.228Z,41.71
2023-11-29T00:10:41.722Z,41.80
2023-11-29T00:13:09.089Z,41.78
2023-11-29T00:15:36.333Z,41.65
2023-11-29T00:18:03.782Z,41.71
2023-11-29T00:20:33.866Z,41.61
2023-11-29T00:23:01.180Z,41.75
2023-11-29T00:25:28.493Z,41.82
2023-11-29T00:27:56.163Z,41.72
2023-11-29T00:30:23.752Z,41.74
2023-11-29T00:32:51.983Z,41.60
2023-11-29T00:35:19.587Z,41.60
2023-11-29T00:37:47.012Z,41.46
2023-11-29T00:40:14.409Z,41.45
2023-11-29T00:42:43.795Z,41.51
2023-11-29T00:45:12.408Z,41.45
2023-11-29T00:47:40.249Z,41.56
2023-11-29T00:50:08.797Z,41.52
2023-11-29T00:52:36.399Z,41.28
2023-11-29T00:55:03.992Z,41.37
2023-11-29T00:57:31.350Z,41.46
2023-11-29T00:59:58.683Z,41.30
2023-11-29T01:02:26.076Z,41.18
2023-11-29T01:04:53.604Z,41.23
2023-11-29T01:07:20.966Z,41.21
2023-11-29T01:09:48.323Z,41.29
2023-11-29T01:12:16.638Z,41.33
2023-11-29T01:14:44.120Z,41.24
2023-11-29T01:17:11.466Z,41.24
2023-11-29T01:19:38.860Z,41.33
2023-11-29T01:22:06.777Z,41.21
2023-11-29T01:24:34.470Z,41.22
2023-11-29T01:27:01.914Z,41.15
2023-11-29T01:29:29.284Z,41.29
2023-11-29T01:31:56.594Z,41.12
2023-11-29T01:34:23.923Z,41.18
2023-11-29T01:36:51.472Z,41.09
2023-11-29T01:39:18.986Z,40.98
2023-11-29T01:41:46.380Z,41.16
2023-11-29T01:44:13.896Z,41.14
2023-11-29T01:46:42.301Z,41.08
2023-11-29T01:49:09.958Z,41.05
2023-11-29T01:51:38.086Z,41.10
2023-11-29T01:54:06.202Z,41.06
2023-11-29T01:56:35.004Z,41.07
2023-11-29T01:59:02.481Z,41.01
2023-11-29T02:01:29.945Z,41.13
2023-11-29T02:03:57.356Z,41.08
2023-11-29T02:06:25.371Z,41.21
2023-11-29T02:08:52.815Z,41.01
2023-11-29T02:11:21.778Z,41.06
2023-11-29T02:13:49.741Z,40.93
2023-11-29T02:16:17.444Z,40.98
2023-11-29T02:18:44.806Z,40.92
2023-11-29T02:21:12.253Z,41.07
2023-11-29T02:24:02.275Z,40.97
2023-11-29T02:26:30.122Z,41.02
2023-11-29T02:28:57.494Z,40.88
2023-11-29T02:31:24.884Z,40.98
2023-11-29T02:33:53.040Z,41.03
2023-11-29T02:36:20.312Z,41.10
2023-11-29T02:38:47.634Z,41.21
2023-11-29T02:41:15.284Z,41.20
2023-11-29T02:43:42.726Z,41.38
2023-11-29T02:46:10.023Z,41.29
2023-11-29T02:48:37.472Z,41.06
2023-11-29T02:51:05.029Z,40.89
2023-11-29T02:53:32.409Z,40.98
2023-11-29T02:55:59.761Z,41.18
2023-11-29T02:58:27.089Z,40.95
2023-11-29T03:00:54.558Z,40.99
2023-11-29T03:03:21.943Z,41.07
2023-11-29T03:05:50.402Z,40.95
2023-11-29T03:08:19.460Z,41.07
2023-11-29T03:10:48.567Z,40.99
2023-11-29T03:13:16.058Z,40.99
2023-11-29T03:15:43.415Z,41.12
2023-11-29T03:18:10.895Z,41.03
2023-11-29T03:20:38.301Z,40.97
2023-11-29T03:23:05.692Z,40.91
2023-11-29T03:25:33.021Z,40.97
2023-11-29T03:28:00.405Z,41.05
2023-11-29T03:30:27.717Z,40.88
2023-11-29T03:32:55.100Z,40.92
2023-11-29T03:35:22.594Z,40.88
2023-11-29T03:37:49.982Z,40.72
2023-11-29T03:40:17.295Z,40.79
2023-11-29T03:42:44.605Z,41.00
2023-11-29T03:45:12.076Z,40.81
2023-11-29T03:47:39.528Z,40.71
2023-11-29T03:50:07.967Z,40.88
2023-11-29T03:52:35.331Z,40.76
2023-11-29T03:55:03.124Z,40.90
2023-11-29T03:57:30.577Z,40.77
2023-11-29T03:59:57.909Z,40.75
2023-11-29T04:02:25.291Z,40.74
2023-11-29T04:04:52.794Z,40.89
2023-11-29T04:07:20.135Z,40.70
2023-11-29T04:09:49.773Z,40.81
2023-11-29T04:12:22.129Z,40.80
2023-11-29T04:14:49.510Z,40.82
2023-11-29T04:17:16.835Z,40.87
2023-11-29T04:19:44.389Z,40.92
2023-11-29T04:22:11.749Z,40.68
2023-11-29T04:24:39.047Z,40.81
2023-11-29T04:27:06.549Z,40.81
2023-11-29T04:29:33.990Z,40.70
2023-11-29T04:32:01.378Z,40.65
2023-11-29T04:34:36.470Z,40.72
2023-11-29T04:37:08.674Z,40.64
2023-11-29T04:39:36.056Z,40.81
2023-11-29T04:42:03.477Z,40.76
2023-11-29T04:44:30.832Z,40.81
2023-11-29T04:46:58.768Z,40.70
2023-11-29T04:49:26.075Z,40.72
2023-11-29T04:51:53.400Z,40.81
2023-11-29T04:54:20.729Z,40.89
2023-11-29T04:56:48.191Z,40.81
2023-11-29T04:59:15.647Z,40.53
2023-11-29T05:01:43.156Z,40.65
2023-11-29T05:04:10.738Z,40.50
2023-11-29T05:06:38.135Z,40.61
2023-11-29T05:09:07.569Z,40.61
2023-11-29T05:11:35.175Z,40.70
2023-11-29T05:14:02.515Z,40.51
2023-11-29T05:16:29.938Z,40.76
2023-11-29T05:18:57.276Z,40.68
2023-11-29T05:21:24.733Z,40.64
2023-11-29T05:23:52.089Z,40.66
2023-11-29T05:26:19.485Z,40.65
2023-11-29T05:28:47.882Z,40.66
2023-11-29T05:31:16.074Z,40.64
2023-11-29T05:33:43.458Z,40.57
2023-11-29T05:36:11.303Z,40.66
2023-11-29T05:38:38.657Z,40.64
2023-11-29T05:41:06.556Z,40.63
2023-11-29T05:43:33.897Z,40.70
2023-11-29T05:46:01.267Z,40.45
2023-11-29T05:48:28.732Z,40.55
2023-11-29T05:50:56.194Z,40.63
2023-11-29T05:53:24.688Z,40.57
2023-11-29T05:55:52.190Z,40.30
2023-11-29T05:58:19.554Z,40.44
2023-11-29T06:00:46.925Z,40.42
2023-11-29T06:03:14.302Z,40.55
2023-11-29T06:05:41.643Z,40.64
2023-11-29T06:08:08.896Z,40.68
2023-11-29T06:10:36.261Z,40.78
2023-11-29T06:13:04.398Z,40.81
2023-11-29T06:15:32.659Z,40.81
2023-11-29T06:18:01.917Z,40.57
2023-11-29T06:20:29.438Z,40.75
2023-11-29T06:22:56.848Z,40.52
2023-11-29T06:25:24.837Z,40.42
2023-11-29T06:27:52.147Z,40.55
2023-11-29T06:30:19.521Z,40.63
2023-11-29T06:32:46.975Z,40.75
2023-11-29T06:35:14.906Z,40.52
2023-11-29T06:37:46.946Z,40.38
2023-11-29T06:40:18.421Z,40.38
2023-11-29T06:42:48.942Z,40.14
2023-11-29T06:45:20.637Z,40.30
2023-11-29T06:47:48.699Z,40.34
2023-11-29T06:50:16.556Z,40.24
2023-11-29T06:52:46.540Z,40.15
2023-11-29T06:55:15.609Z,40.11
2023-11-29T06:57:46.147Z,40.14
2023-11-29T07:00:17.997Z,39.96
2023-11-29T07:02:45.974Z,39.69
2023-11-29T07:05:13.584Z,39.97
2023-11-29T07:07:40.902Z,39.81
2023-11-29T07:10:09.316Z,39.99
2023-11-29T07:12:37.000Z,39.98
2023-11-29T07:15:05.833Z,39.99
2023-11-29T07:17:33.572Z,40.04
2023-11-29T07:20:05.421Z,40.02
2023-11-29T07:22:35.798Z,40.08
2023-11-29T07:25:03.178Z,39.95
2023-11-29T07:27:30.477Z,40.42
2023-11-29T07:29:57.956Z,40.30
2023-11-29T07:32:25.457Z,40.20
2023-11-29T07:34:53.278Z,40.44
2023-11-29T07:37:21.889Z,40.38
2023-11-29T07:39:49.722Z,40.45
2023-11-29T07:42:17.201Z,40.37
2023-11-29T07:44:44.764Z,40.28
2023-11-29T07:47:12.572Z,40.41
2023-11-29T07:49:39.902Z,40.61
2023-11-29T07:52:07.682Z,40.64
2023-11-29T07:54:35.065Z,40.80
2023-11-29T07:57:02.492Z,40.42
2023-11-29T07:59:29.857Z,40.26
2023-11-29T08:01:57.217Z,40.21
2023-11-29T08:04:25.459Z,39.94
2023-11-29T08:06:52.884Z,39.80
2023-11-29T08:09:20.521Z,39.75
2023-11-29T08:11:47.882Z,39.65
2023-11-29T08:14:15.308Z,39.25
2023-11-29T08:16:42.690Z,39.21
2023-11-29T08:19:10.098Z,39.57
2023-11-29T08:21:37.989Z,39.82
2023-11-29T08:24:05.819Z,39.82
2023-11-29T08:26:33.309Z,39.96
2023-11-29T08:29:00.740Z,39.74
2023-11-29T08:31:28.424Z,39.73
2023-11-29T08:33:55.771Z,39.53
2023-11-29T08:36:23.240Z,39.66
2023-11-29T08:38:53.008Z,39.52
2023-11-29T08:41:20.849Z,39.71
2023-11-29T08:43:48.542Z,39.34
2023-11-29T08:46:16.063Z,39.47
2023-11-29T08:48:44.072Z,39.49
2023-11-29T08:51:11.636Z,39.40
2023-11-29T08:53:43.468Z,39.57
2023-11-29T08:56:19.426Z,39.38
2023-11-29T08:58:48.542Z,39.41
2023-11-29T09:01:20.533Z,39.55
2023-11-29T09:03:49.483Z,39.18
2023-11-29T09:06:17.493Z,38.95
2023-11-29T09:08:45.251Z,39.12
2023-11-29T09:11:12.981Z,39.21
2023-11-29T09:13:40.351Z,39.03
2023-11-29T09:16:08.819Z,38.97
2023-11-29T09:18:38.227Z,39.08
2023-11-29T09:21:06.013Z,38.84
2023-11-29T09:23:36.252Z,38.92
2023-11-29T09:26:03.783Z,39.02
2023-11-29T09:28:31.568Z,39.27
2023-11-29T09:31:02.200Z,39.55
2023-11-29T09:33:30.827Z,39.10
2023-11-29T09:35:58.651Z,38.85
2023-11-29T09:38:26.296Z,38.19
2023-11-29T09:40:53.747Z,38.60
2023-11-29T09:43:21.227Z,37.63
2023-11-29T09:45:48.942Z,37.80
2023-11-29T09:48:16.339Z,37.30
2023-11-29T09:50:44.400Z,38.05
2023-11-29T09:53:14.017Z,38.52
2023-11-29T09:55:41.370Z,38.75
2023-11-29T09:58:08.697Z,38.15
2023-11-29T10:00:37.083Z,38.36
2023-11-29T10:03:14.842Z,38.05
2023-11-29T10:05:46.937Z,37.75
2023-11-29T10:08:17.499Z,38.03
2023-11-29T10:10:45.759Z,37.88
2023-11-29T10:13:19.874Z,37.95
2023-11-29T10:15:49.675Z,38.03
2023-11-29T10:18:20.077Z,38.01
2023-11-29T10:20:56.278Z,38.22
2023-11-29T10:23:33.019Z,38.73
2023-11-29T10:26:00.636Z,38.90
2023-11-29T10:28:27.985Z,38.78
2023-11-29T10:30:55.837Z,37.28
2023-11-29T10:33:23.984Z,35.04
2023-11-29T10:35:51.999Z,34.44
2023-11-29T10:38:21.587Z,35.40
2023-11-29T10:40:50.081Z,36.67
2023-11-29T10:43:24.792Z,37.84
2023-11-29T10:46:00.405Z,38.73
2023-11-29T10:48:32.244Z,39.05
2023-11-29T10:51:00.171Z,39.27
2023-11-29T10:53:30.957Z,39.49
2023-11-29T10:55:59.189Z,39.48
2023-11-29T10:58:39.967Z,39.53
2023-11-29T11:01:09.180Z,40.25
2023-11-29T11:03:44.350Z,40.16
2023-11-29T11:06:24.610Z,40.00
2023-11-29T11:08:53.525Z,40.60
2023-11-29T11:11:43.202Z,41.05
2023-11-29T11:14:34.290Z,40.51
2023-11-29T11:17:08.165Z,40.53
2023-11-29T11:19:37.574Z,40.44
2023-11-29T11:22:13.646Z,40.48
2023-11-29T11:25:05.517Z,40.96
2023-11-29T11:27:35.575Z,41.58
2023-11-29T11:30:29.606Z,41.76
2023-11-29T11:33:00.881Z,41.86
2023-11-29T11:35:37.811Z,41.57
2023-11-29T11:38:10.591Z,41.06
2023-11-29T11:40:39.676Z,41.34
2023-11-29T11:43:07.932Z,41.70
2023-11-29T11:45:37.934Z,41.75
2023-11-29T11:48:06.806Z,41.92
2023-11-29T11:50:35.224Z,41.79
2023-11-29T11:53:04.894Z,41.78
2023-11-29T11:55:34.316Z,41.67
2023-11-29T11:58:05.508Z,41.68
2023-11-29T12:00:33.041Z,41.84
2023-11-29T12:03:02.371Z,41.80
2023-11-29T12:05:30.661Z,41.82
2023-11-29T12:07:59.112Z,41.87
2023-11-29T12:10:26.593Z,41.71
2023-11-29T12:12:55.267Z,41.34
2023-11-29T12:15:22.849Z,41.02
2023-11-29T12:17:50.474Z,41.06
2023-11-29T12:20:18.230Z,41.34
2023-11-29T12:22:49.008Z,41.62
2023-11-29T12:25:21.286Z,41.52
2023-11-29T12:27:52.306Z,41.43
2023-11-29T12:30:20.978Z,41.46
2023-11-29T12:32:49.210Z,41.78
2023-11-29T12:35:17.672Z,41.75
2023-11-29T12:37:48.256Z,41.63
2023-11-29T12:40:17.933Z,41.64
2023-11-29T12:42:46.544Z,41.58
2023-11-29T12:45:18.209Z,41.62
2023-11-29T12:47:45.790Z,41.90
2023-11-29T12:50:13.850Z,41.68
2023-11-29T12:52:41.924Z,41.87
2023-11-29T12:55:09.688Z,41.76
2023-11-29T12:57:37.759Z,41.82
2023-11-29T13:00:06.645Z,41.72
2023-11-29T13:02:34.248Z,41.73
2023-11-29T13:05:01.920Z,41.63
2023-11-29T13:07:29.334Z,41.78
2023-11-29T13:09:56.707Z,41.54
2023-11-29T13:12:24.060Z,41.63
2023-11-29T13:14:51.481Z,41.51
2023-11-29T13:17:22.211Z,41.51
2023-11-29T13:19:49.878Z,41.59
2023-11-29T13:22:17.239Z,41.68
2023-11-29T13:24:44.829Z,41.78
2023-11-29T13:27:13.815Z,42.02
2023-11-29T13:29:43.421Z,42.07
2023-11-29T13:32:12.073Z,42.23
2023-11-29T13:34:39.673Z,42.03
2023-11-29T13:37:07.027Z,42.22
2023-11-29T13:39:34.504Z,42.24
2023-11-29T13:42:02.039Z,42.42
2023-11-29T13:44:29.826Z,42.38
2023-11-29T13:46:57.685Z,42.57
2023-11-29T13:49:25.793Z,42.63
2023-11-29T13:52:04.235Z,42.61
2023-11-29T13:54:40.431Z,42.52
2023-11-29T13:57:07.950Z,42.27
2023-11-29T13:59:37.718Z,42.82
2023-11-29T14:02:14.388Z,42.97
2023-11-29T14:04:45.541Z,42.76
2023-11-29T14:07:13.120Z,42.90
2023-11-29T14:09:40.387Z,42.60
2023-11-29T14:12:07.927Z,42.66
2023-11-29T14:14:35.353Z,42.76
2023-11-29T14:17:02.750Z,42.73
2023-11-29T14:19:30.167Z,42.91
2023-11-29T14:21:57.511Z,42.96
2023-11-29T14:24:25.120Z,43.03
2023-11-29T14:26:54.449Z,42.98
2023-11-29T14:29:23.926Z,42.78
2023-11-29T14:31:52.992Z,42.86
2023-11-29T14:34:22.376Z,42.84
2023-11-29T14:36:54.945Z,43.08
2023-11-29T14:39:23.205Z,43.04
2023-11-29T14:41:50.566Z,42.90
2023-11-29T14:44:18.366Z,43.05
2023-11-29T14:46:45.753Z,43.08
2023-11-29T14:49:16.848Z,43.10
2023-11-29T14:51:51.288Z,43.27
2023-11-29T14:54:21.592Z,43.28
2023-11-29T14:56:49.058Z,43.18
2023-11-29T14:59:16.893Z,43.24
2023-11-29T15:01:44.209Z,43.05
2023-11-29T15:04:11.600Z,43.18
2023-11-29T15:06:39.156Z,43.30
2023-11-29T15:09:06.598Z,42.82
2023-11-29T15:11:36.071Z,42.60
2023-11-29T15:14:04.123Z,42.47
2023-11-29T15:16:31.595Z,42.43
2023-11-29T15:18:59.173Z,42.60
2023-11-29T15:21:26.656Z,42.56
2023-11-29T15:23:54.533Z,42.59
2023-11-29T15:26:22.708Z,42.68
2023-11-29T15:28:49.939Z,42.60
2023-11-29T15:31:17.261Z,42.81
2023-11-29T15:33:44.798Z,42.85
2023-11-29T15:36:12.527Z,42.80
2023-11-29T15:38:39.951Z,42.75
2023-11-29T15:41:07.330Z,42.93
2023-11-29T15:43:34.758Z,42.83
2023-11-29T15:46:02.236Z,42.76
2023-11-29T15:48:29.851Z,42.75
2023-11-29T15:50:57.318Z,43.01
2023-11-29T15:53:24.736Z,42.94
2023-11-29T15:55:52.431Z,43.06
2023-11-29T15:58:19.847Z,43.19
2023-11-29T16:00:47.163Z,42.89
2023-11-29T16:03:14.630Z,42.92
2023-11-29T16:05:43.561Z,43.11
2023-11-29T16:08:11.899Z,43.17
2023-11-29T16:10:39.361Z,43.25
2023-11-29T16:13:06.694Z,43.25
2023-11-29T16:15:35.659Z,43.08
2023-11-29T16:18:03.208Z,43.26
2023-11-29T16:20:32.877Z,43.23
2023-11-29T16:23:00.186Z,43.20
2023-11-29T16:25:27.879Z,43.28
2023-11-29T16:27:55.272Z,43.15
2023-11-29T16:30:22.804Z,43.11
2023-11-29T16:32:50.499Z,43.03
2023-11-29T16:35:18.577Z,43.15
2023-11-29T16:37:48.468Z,43.02
2023-11-29T16:40:16.073Z,42.99
2023-11-29T16:42:43.473Z,43.17
2023-11-29T16:45:10.961Z,42.88
2023-11-29T16:47:38.366Z,42.59
2023-11-29T16:50:07.116Z,42.20
2023-11-29T16:52:34.565Z,41.83
2023-11-29T16:55:02.617Z,41.64
2023-11-29T16:57:30.006Z,41.29
2023-11-29T16:59:57.333Z,41.18
2023-11-29T17:02:24.833Z,41.06
2023-11-29T17:04:52.370Z,40.97
2023-11-29T17:07:19.757Z,40.91
2023-11-29T17:09:47.200Z,40.95
2023-11-29T17:12:14.610Z,41.18
2023-11-29T17:14:42.006Z,41.30
2023-11-29T17:17:09.650Z,41.21
2023-11-29T17:19:36.998Z,41.54
2023-11-29T17:22:04.699Z,41.54
2023-11-29T17:24:32.167Z,41.37
2023-11-29T17:26:59.623Z,41.28
2023-11-29T17:29:27.014Z,41.48
2023-11-29T17:31:54.928Z,41.51
2023-11-29T17:34:22.245Z,41.29
2023-11-29T17:36:49.727Z,40.92
2023-11-29T17:39:17.136Z,40.86
2023-11-29T17:41:44.497Z,41.12
2023-11-29T17:44:13.123Z,41.02
2023-11-29T17:46:40.471Z,41.03
2023-11-29T17:49:08.012Z,40.76
2023-11-29T17:51:35.329Z,40.98
2023-11-29T17:54:02.695Z,41.32
2023-11-29T17:56:36.642Z,41.12
2023-11-29T17:59:13.583Z,41.01
2023-11-29T18:01:42.801Z,40.85
2023-11-29T18:04:11.078Z,40.79
2023-11-29T18:06:39.232Z,40.63
2023-11-29T18:09:06.891Z,40.74
2023-11-29T18:11:34.314Z,40.98
2023-11-29T18:14:01.801Z,41.15
2023-11-29T18:16:30.239Z,41.42
2023-11-29T18:18:58.788Z,41.52
2023-11-29T18:21:26.288Z,41.50
2023-11-29T18:23:54.721Z,41.22
2023-11-29T18:26:22.088Z,41.19
2023-11-29T18:28:51.916Z,41.29
2023-11-29T18:31:19.618Z,41.20
2023-11-29T18:33:47.271Z,41.13
2023-11-29T18:36:15.978Z,41.09
2023-11-29T18:38:44.056Z,41.31
2023-11-29T18:41:11.617Z,41.22
2023-11-29T18:43:39.006Z,41.29
2023-11-29T18:46:09.378Z,41.06
2023-11-29T18:48:36.993Z,41.12
2023-11-29T18:51:04.436Z,41.15
2023-11-29T18:53:31.809Z,40.97
2023-11-29T18:55:59.693Z,41.14
2023-11-29T18:58:27.158Z,41.05
2023-11-29T19:00:54.573Z,40.87
2023-11-29T19:03:22.253Z,41.02
2023-11-29T19:05:49.857Z,41.02
2023-11-29T19:08:17.213Z,41.01
2023-11-29T19:10:44.904Z,41.04
2023-11-29T19:13:12.268Z,41.07
2023-11-29T19:15:39.664Z,41.12
2023-11-29T19:18:07.158Z,41.01
2023-11-29T19:20:34.968Z,41.09
2023-11-29T19:23:02.443Z,41.09
2023-11-29T19:25:29.702Z,41.03
2023-11-29T19:27:56.985Z,41.06
2023-11-29T19:30:24.741Z,41.19
2023-11-29T19:32:52.159Z,41.22
2023-11-29T19:35:25.815Z,41.17
2023-11-29T19:37:58.149Z,41.00
2023-11-29T19:40:25.552Z,40.99
2023-11-29T19:42:52.879Z,40.83
2023-11-29T19:45:21.174Z,40.86
2023-11-29T19:47:48.645Z,40.80
2023-11-29T19:50:16.371Z,40.88
2023-11-29T19:52:48.312Z,40.75
2023-11-29T19:55:22.829Z,40.68
2023-11-29T19:57:50.138Z,40.61
2023-11-29T20:00:17.903Z,40.69
2023-11-29T20:02:45.265Z,40.68
2023-11-29T20:05:12.607Z,40.60
2023-11-29T20:07:40.638Z,40.61
2023-11-29T20:10:08.322Z,40.66
2023-11-29T20:12:35.653Z,40.74
2023-11-29T20:15:03.165Z,40.85
2023-11-29T20:17:30.550Z,40.62
2023-11-29T20:20:03.773Z,40.71
2023-11-29T20:22:34.452Z,40.74
2023-11-29T20:25:02.230Z,40.68
2023-11-29T20:27:29.601Z,40.67
2023-11-29T20:29:57.052Z,40.53
2023-11-29T20:32:24.584Z,40.60
2023-11-29T20:35:08.658Z,40.60
2023-11-29T20:37:39.431Z,40.63
2023-11-29T20:40:07.596Z,40.53
2023-11-29T20:42:36.399Z,40.51
2023-11-29T20:45:04.519Z,40.69
2023-11-29T20:47:32.089Z,40.61
2023-11-29T20:49:59.602Z,40.67
2023-11-29T20:52:27.028Z,40.51
2023-11-29T20:54:54.842Z,40.25
2023-11-29T20:57:23.582Z,40.34
2023-11-29T20:59:51.308Z,40.23
2023-11-29T21:02:18.697Z,40.24
2023-11-29T21:04:46.196Z,40.41
2023-11-29T21:07:13.871Z,40.42
2023-11-29T21:09:41.533Z,40.28
2023-11-29T21:12:09.509Z,40.35
2023-11-29T21:14:36.876Z,40.15
2023-11-29T21:17:05.506Z,40.28
2023-11-29T21:19:33.102Z,40.25
2023-11-29T21:22:27.675Z,40.22
2023-11-29T21:24:53.714Z,40.24
2023-11-29T21:27:36.995Z,40.07
2023-11-29T21:30:05.019Z,40.26
2023-11-29T21:32:32.388Z,40.02
2023-11-29T21:34:59.755Z,40.05
2023-11-29T21:37:27.097Z,40.01
2023-11-29T21:39:54.410Z,40.01
2023-11-29T21:42:21.690Z,39.80
2023-11-29T21:44:49.104Z,39.87
2023-11-29T21:47:17.594Z,39.86
2023-11-29T21:49:48.696Z,39.84
2023-11-29T21:52:16.084Z,39.95
2023-11-29T21:54:43.384Z,39.70
2023-11-29T21:57:10.828Z,39.78
2023-11-29T21:59:38.176Z,39.69
2023-11-29T22:02:05.581Z,39.76
2023-11-29T22:04:32.980Z,39.75
2023-11-29T22:07:01.045Z,39.67
2023-11-29T22:09:28.830Z,39.62
2023-11-29T22:11:57.028Z,39.72
2023-11-29T22:14:26.450Z,39.69
2023-11-29T22:16:54.605Z,39.70
2023-11-29T22:19:22.005Z,39.63
2023-11-29T22:21:49.268Z,39.58
2023-11-29T22:24:16.580Z,39.38
2023-11-29T22:26:52.259Z,39.59
2023-11-29T22:29:26.290Z,39.36
2023-11-29T22:31:54.981Z,39.33
2023-11-29T22:34:22.651Z,39.26
2023-11-29T22:36:50.796Z,39.40
2023-11-29T22:39:18.326Z,39.25
2023-11-29T22:41:45.877Z,39.30
2023-11-29T22:44:13.253Z,39.47
2023-11-29T22:46:41.210Z,39.43
2023-11-29T22:49:09.016Z,39.75
2023-11-29T22:51:37.211Z,39.77
2023-11-29T22:54:05.639Z,39.71
2023-11-29T22:56:37.131Z,39.77
2023-11-29T22:59:06.009Z,39.49
2023-11-29T23:01:34.316Z,39.54
2023-11-29T23:04:03.900Z,39.26
2023-11-29T23:06:32.743Z,38.89
2023-11-29T23:09:00.819Z,38.85
2023-11-29T23:11:28.226Z,38.91
2023-11-29T23:13:55.882Z,38.79
2023-11-29T23:16:23.342Z,38.95
2023-11-29T23:18:50.768Z,39.07
2023-11-29T23:21:18.422Z,39.06
2023-11-29T23:23:46.839Z,39.22
2023-11-29T23:28:41.616Z,39.51
2023-11-29T23:31:09.309Z,39.59
2023-11-29T23:33:36.772Z,39.63
2023-11-29T23:36:07.758Z,39.77
2023-11-29T23:38:36.313Z,39.87
2023-11-29T23:41:03.741Z,39.81
2023-11-29T23:43:31.189Z,39.94
2023-11-29T23:45:59.037Z,39.92
2023-11-29T23:48:26.613Z,39.87
2023-11-29T23:50:54.062Z,39.79
2023-11-29T23:53:21.398Z,39.89
2023-11-29T23:55:48.714Z,39.88
2023-11-29T23:58:16.480Z,39.84
